sensor_id;sensor_type;location;lat;lon;timestamp;P1;durP1;ratioP1;P2;durP2;ratioP2
14394;SDS011;7282;49.204;10.652;2022-09-17T00:01:25;2.50;;;2.30;;
14394;SDS011;7282;49.204;10.652;2022-09-17T00:03:54;2.70;;;2.50;;
14394;SDS011;7282;49.204;10.652;2022-09-17T00:06:21;3.33;;;2.40;;
14394;SDS011;7282;49.204;10.652;2022-09-17T00:08:49;2.67;;;2.47;;
14394;SDS011;7282;49.204;10.652;2022-09-17T00:11:23;2.77;;;2.57;;
14394;SDS011;7282;49.204;10.652;2022-09-17T00:13:50;6.83;;;2.60;;
14394;SDS011;7282;49.204;10.652;2022-09-17T00:16:32;2.97;;;2.63;;
14394;SDS011;7282;49.204;10.652;2022-09-17T00:18:55;4.10;;;2.83;;
14394;SDS011;7282;49.204;10.652;2022-09-17T00:21:22;3.20;;;2.80;;
14394;SDS011;7282;49.204;10.652;2022-09-17T00:23:56;3.07;;;2.77;;
14394;SDS011;7282;49.204;10.652;2022-09-17T00:26:23;3.10;;;2.80;;
14394;SDS011;7282;49.204;10.652;2022-09-17T00:28:51;3.70;;;3.40;;
14394;SDS011;7282;49.204;10.652;2022-09-17T00:31:18;3.33;;;3.00;;
14394;SDS011;7282;49.204;10.652;2022-09-17T00:33:45;5.03;;;2.87;;
14394;SDS011;7282;49.204;10.652;2022-09-17T00:36:15;3.97;;;3.43;;
14394;SDS011;7282;49.204;10.652;2022-09-17T00:38:41;6.93;;;3.40;;
14394;SDS011;7282;49.204;10.652;2022-09-17T00:41:08;4.23;;;3.10;;
14394;SDS011;7282;49.204;10.652;2022-09-17T00:46:49;5.00;;;3.37;;
14394;SDS011;7282;49.204;10.652;2022-09-17T00:48:38;4.00;;;3.03;;
14394;SDS011;7282;49.204;10.652;2022-09-17T00:51:04;6.53;;;3.23;;
14394;SDS011;7282;49.204;10.652;2022-09-17T00:53:32;5.20;;;3.40;;
14394;SDS011;7282;49.204;10.652;2022-09-17T00:56:08;4.40;;;3.27;;
14394;SDS011;7282;49.204;10.652;2022-09-17T00:58:30;6.50;;;3.63;;
14394;SDS011;7282;49.204;10.652;2022-09-17T01:00:58;6.87;;;3.87;;
14394;SDS011;7282;49.204;10.652;2022-09-17T01:03:25;4.50;;;3.90;;
14394;SDS011;7282;49.204;10.652;2022-09-17T01:08:44;4.50;;;3.80;;
14394;SDS011;7282;49.204;10.652;2022-09-17T01:11:12;4.30;;;3.73;;
14394;SDS011;7282;49.204;10.652;2022-09-17T01:16:30;4.10;;;3.63;;
14394;SDS011;7282;49.204;10.652;2022-09-17T01:21:42;4.17;;;3.50;;
14394;SDS011;7282;49.204;10.652;2022-09-17T01:24:14;4.50;;;3.23;;
14394;SDS011;7282;49.204;10.652;2022-09-17T01:29:48;3.67;;;3.37;;
14394;SDS011;7282;49.204;10.652;2022-09-17T01:32:30;5.37;;;4.00;;
14394;SDS011;7282;49.204;10.652;2022-09-17T01:34:58;5.87;;;3.70;;
14394;SDS011;7282;49.204;10.652;2022-09-17T01:37:32;4.57;;;3.60;;
14394;SDS011;7282;49.204;10.652;2022-09-17T01:40:02;4.57;;;3.53;;
14394;SDS011;7282;49.204;10.652;2022-09-17T01:42:34;6.10;;;3.30;;
14394;SDS011;7282;49.204;10.652;2022-09-17T01:45:07;4.43;;;3.30;;
14394;SDS011;7282;49.204;10.652;2022-09-17T01:47:35;5.50;;;3.80;;
14394;SDS011;7282;49.204;10.652;2022-09-17T01:50:15;7.63;;;4.67;;
14394;SDS011;7282;49.204;10.652;2022-09-17T01:52:38;6.40;;;4.27;;
14394;SDS011;7282;49.204;10.652;2022-09-17T01:55:07;6.27;;;4.53;;
14394;SDS011;7282;49.204;10.652;2022-09-17T01:57:46;6.20;;;5.37;;
14394;SDS011;7282;49.204;10.652;2022-09-17T02:00:11;6.20;;;4.83;;
14394;SDS011;7282;49.204;10.652;2022-09-17T02:05:26;8.77;;;6.03;;
14394;SDS011;7282;49.204;10.652;2022-09-17T02:07:55;6.83;;;5.40;;
14394;SDS011;7282;49.204;10.652;2022-09-17T02:10:23;6.97;;;5.30;;
14394;SDS011;7282;49.204;10.652;2022-09-17T02:12:53;6.17;;;5.27;;
14394;SDS011;7282;49.204;10.652;2022-09-17T02:15:19;7.20;;;5.40;;
14394;SDS011;7282;49.204;10.652;2022-09-17T02:17:49;5.80;;;5.17;;
14394;SDS011;7282;49.204;10.652;2022-09-17T02:20:16;5.90;;;5.33;;
14394;SDS011;7282;49.204;10.652;2022-09-17T02:22:47;6.00;;;5.13;;
14394;SDS011;7282;49.204;10.652;2022-09-17T02:25:19;9.43;;;5.40;;
14394;SDS011;7282;49.204;10.652;2022-09-17T02:28:02;5.93;;;5.33;;
14394;SDS011;7282;49.204;10.652;2022-09-17T02:30:31;9.57;;;5.20;;
14394;SDS011;7282;49.204;10.652;2022-09-17T02:32:58;5.67;;;5.03;;
14394;SDS011;7282;49.204;10.652;2022-09-17T02:35:25;5.90;;;5.30;;
14394;SDS011;7282;49.204;10.652;2022-09-17T02:37:52;8.40;;;6.07;;
14394;SDS011;7282;49.204;10.652;2022-09-17T02:40:19;6.10;;;5.50;;
14394;SDS011;7282;49.204;10.652;2022-09-17T02:42:52;5.73;;;5.23;;
14394;SDS011;7282;49.204;10.652;2022-09-17T02:50:28;6.27;;;5.00;;
14394;SDS011;7282;49.204;10.652;2022-09-17T02:58:25;7.17;;;4.80;;
14394;SDS011;7282;49.204;10.652;2022-09-17T03:00:52;7.03;;;4.57;;
14394;SDS011;7282;49.204;10.652;2022-09-17T03:03:25;6.30;;;4.87;;
14394;SDS011;7282;49.204;10.652;2022-09-17T03:05:51;6.80;;;4.77;;
14394;SDS011;7282;49.204;10.652;2022-09-17T03:08:18;5.60;;;4.67;;
14394;SDS011;7282;49.204;10.652;2022-09-17T03:10:46;6.80;;;4.50;;
14394;SDS011;7282;49.204;10.652;2022-09-17T03:13:14;8.20;;;5.03;;
14394;SDS011;7282;49.204;10.652;2022-09-17T03:15:41;5.03;;;4.07;;
14394;SDS011;7282;49.204;10.652;2022-09-17T03:18:08;7.67;;;4.20;;
14394;SDS011;7282;49.204;10.652;2022-09-17T03:20:34;7.23;;;4.10;;
14394;SDS011;7282;49.204;10.652;2022-09-17T03:23:01;6.30;;;4.47;;
14394;SDS011;7282;49.204;10.652;2022-09-17T03:25:28;6.57;;;4.10;;
14394;SDS011;7282;49.204;10.652;2022-09-17T03:27:55;7.23;;;4.47;;
14394;SDS011;7282;49.204;10.652;2022-09-17T03:30:21;5.50;;;3.70;;
14394;SDS011;7282;49.204;10.652;2022-09-17T03:32:48;6.27;;;3.93;;
14394;SDS011;7282;49.204;10.652;2022-09-17T03:35:15;8.90;;;4.00;;
14394;SDS011;7282;49.204;10.652;2022-09-17T03:37:41;6.40;;;3.90;;
14394;SDS011;7282;49.204;10.652;2022-09-17T03:40:08;9.23;;;3.77;;
14394;SDS011;7282;49.204;10.652;2022-09-17T03:42:35;6.00;;;3.60;;
14394;SDS011;7282;49.204;10.652;2022-09-17T03:45:02;6.57;;;4.00;;
14394;SDS011;7282;49.204;10.652;2022-09-17T03:47:28;5.83;;;3.53;;
14394;SDS011;7282;49.204;10.652;2022-09-17T03:49:55;3.43;;;3.13;;
14394;SDS011;7282;49.204;10.652;2022-09-17T03:52:22;7.03;;;3.20;;
14394;SDS011;7282;49.204;10.652;2022-09-17T03:54:49;6.47;;;3.80;;
14394;SDS011;7282;49.204;10.652;2022-09-17T03:57:16;4.43;;;3.10;;
14394;SDS011;7282;49.204;10.652;2022-09-17T03:59:42;6.13;;;3.37;;
14394;SDS011;7282;49.204;10.652;2022-09-17T04:02:09;5.97;;;2.97;;
14394;SDS011;7282;49.204;10.652;2022-09-17T04:04:36;5.53;;;3.10;;
14394;SDS011;7282;49.204;10.652;2022-09-17T04:07:03;5.07;;;3.13;;
14394;SDS011;7282;49.204;10.652;2022-09-17T04:09:29;8.40;;;3.50;;
14394;SDS011;7282;49.204;10.652;2022-09-17T04:11:56;5.00;;;2.93;;
14394;SDS011;7282;49.204;10.652;2022-09-17T04:14:23;6.77;;;3.23;;
14394;SDS011;7282;49.204;10.652;2022-09-17T04:16:49;6.73;;;3.57;;
14394;SDS011;7282;49.204;10.652;2022-09-17T04:19:16;5.53;;;3.20;;
14394;SDS011;7282;49.204;10.652;2022-09-17T04:21:43;6.07;;;3.13;;
14394;SDS011;7282;49.204;10.652;2022-09-17T04:24:10;11.97;;;4.03;;
14394;SDS011;7282;49.204;10.652;2022-09-17T04:26:36;7.53;;;4.07;;
14394;SDS011;7282;49.204;10.652;2022-09-17T04:29:03;5.27;;;3.10;;
14394;SDS011;7282;49.204;10.652;2022-09-17T04:31:31;5.37;;;3.67;;
14394;SDS011;7282;49.204;10.652;2022-09-17T04:33:58;5.40;;;3.03;;
14394;SDS011;7282;49.204;10.652;2022-09-17T04:36:25;5.93;;;3.40;;
14394;SDS011;7282;49.204;10.652;2022-09-17T04:38:52;7.77;;;3.27;;
14394;SDS011;7282;49.204;10.652;2022-09-17T04:41:18;5.73;;;2.93;;
14394;SDS011;7282;49.204;10.652;2022-09-17T04:43:45;6.43;;;3.33;;
14394;SDS011;7282;49.204;10.652;2022-09-17T04:46:12;5.30;;;3.20;;
14394;SDS011;7282;49.204;10.652;2022-09-17T04:48:39;6.00;;;3.30;;
14394;SDS011;7282;49.204;10.652;2022-09-17T04:51:05;7.00;;;3.27;;
14394;SDS011;7282;49.204;10.652;2022-09-17T04:53:32;5.90;;;3.30;;
14394;SDS011;7282;49.204;10.652;2022-09-17T04:55:59;8.50;;;3.50;;
14394;SDS011;7282;49.204;10.652;2022-09-17T04:58:25;6.97;;;3.40;;
14394;SDS011;7282;49.204;10.652;2022-09-17T05:00:52;4.67;;;2.80;;
14394;SDS011;7282;49.204;10.652;2022-09-17T05:03:19;5.33;;;3.13;;
14394;SDS011;7282;49.204;10.652;2022-09-17T05:05:46;5.27;;;3.50;;
14394;SDS011;7282;49.204;10.652;2022-09-17T05:08:12;8.37;;;3.93;;
14394;SDS011;7282;49.204;10.652;2022-09-17T05:10:39;9.30;;;4.10;;
14394;SDS011;7282;49.204;10.652;2022-09-17T05:13:06;4.27;;;3.87;;
14394;SDS011;7282;49.204;10.652;2022-09-17T05:15:32;6.40;;;4.13;;
14394;SDS011;7282;49.204;10.652;2022-09-17T05:17:59;7.87;;;5.13;;
14394;SDS011;7282;49.204;10.652;2022-09-17T05:20:26;6.43;;;4.47;;
14394;SDS011;7282;49.204;10.652;2022-09-17T05:22:52;8.00;;;4.27;;
14394;SDS011;7282;49.204;10.652;2022-09-17T05:25:20;6.23;;;4.43;;
14394;SDS011;7282;49.204;10.652;2022-09-17T05:27:49;10.50;;;4.40;;
14394;SDS011;7282;49.204;10.652;2022-09-17T05:30:22;5.43;;;3.90;;
14394;SDS011;7282;49.204;10.652;2022-09-17T05:32:45;6.67;;;4.67;;
14394;SDS011;7282;49.204;10.652;2022-09-17T05:35:12;7.30;;;4.63;;
14394;SDS011;7282;49.204;10.652;2022-09-17T05:37:39;8.93;;;5.20;;
14394;SDS011;7282;49.204;10.652;2022-09-17T05:40:06;6.77;;;4.73;;
14394;SDS011;7282;49.204;10.652;2022-09-17T05:42:33;9.50;;;4.60;;
14394;SDS011;7282;49.204;10.652;2022-09-17T05:45:00;6.67;;;4.90;;
14394;SDS011;7282;49.204;10.652;2022-09-17T05:47:26;8.60;;;5.57;;
14394;SDS011;7282;49.204;10.652;2022-09-17T05:49:53;5.93;;;4.83;;
14394;SDS011;7282;49.204;10.652;2022-09-17T05:52:20;9.53;;;4.97;;
14394;SDS011;7282;49.204;10.652;2022-09-17T05:54:46;8.07;;;5.30;;
14394;SDS011;7282;49.204;10.652;2022-09-17T05:57:13;8.90;;;5.33;;
14394;SDS011;7282;49.204;10.652;2022-09-17T05:59:40;6.70;;;5.20;;
14394;SDS011;7282;49.204;10.652;2022-09-17T06:02:08;6.27;;;4.80;;
14394;SDS011;7282;49.204;10.652;2022-09-17T06:04:38;6.83;;;5.20;;
14394;SDS011;7282;49.204;10.652;2022-09-17T06:07:04;9.33;;;5.97;;
14394;SDS011;7282;49.204;10.652;2022-09-17T06:09:34;6.47;;;5.40;;
14394;SDS011;7282;49.204;10.652;2022-09-17T06:12:03;8.93;;;5.40;;
14394;SDS011;7282;49.204;10.652;2022-09-17T06:14:30;7.47;;;6.10;;
14394;SDS011;7282;49.204;10.652;2022-09-17T06:16:56;7.10;;;5.77;;
14394;SDS011;7282;49.204;10.652;2022-09-17T06:19:23;6.40;;;4.70;;
14394;SDS011;7282;49.204;10.652;2022-09-17T06:21:50;6.67;;;4.50;;
14394;SDS011;7282;49.204;10.652;2022-09-17T06:24:16;6.23;;;4.30;;
14394;SDS011;7282;49.204;10.652;2022-09-17T06:26:43;7.03;;;4.37;;
14394;SDS011;7282;49.204;10.652;2022-09-17T06:29:10;7.33;;;4.67;;
14394;SDS011;7282;49.204;10.652;2022-09-17T06:31:38;6.67;;;4.30;;
14394;SDS011;7282;49.204;10.652;2022-09-17T06:34:05;6.83;;;4.20;;
14394;SDS011;7282;49.204;10.652;2022-09-17T06:36:32;7.60;;;4.20;;
14394;SDS011;7282;49.204;10.652;2022-09-17T06:38:58;7.60;;;4.23;;
14394;SDS011;7282;49.204;10.652;2022-09-17T06:41:25;6.13;;;4.67;;
14394;SDS011;7282;49.204;10.652;2022-09-17T06:43:52;5.33;;;3.93;;
14394;SDS011;7282;49.204;10.652;2022-09-17T06:46:22;5.27;;;4.50;;
14394;SDS011;7282;49.204;10.652;2022-09-17T06:48:48;5.57;;;4.20;;
14394;SDS011;7282;49.204;10.652;2022-09-17T06:51:15;8.10;;;4.20;;
14394;SDS011;7282;49.204;10.652;2022-09-17T06:53:42;7.70;;;4.40;;
14394;SDS011;7282;49.204;10.652;2022-09-17T06:56:09;5.30;;;3.77;;
14394;SDS011;7282;49.204;10.652;2022-09-17T06:58:36;6.90;;;3.93;;
14394;SDS011;7282;49.204;10.652;2022-09-17T07:01:03;5.30;;;4.53;;
14394;SDS011;7282;49.204;10.652;2022-09-17T07:03:30;6.90;;;4.57;;
14394;SDS011;7282;49.204;10.652;2022-09-17T07:05:57;7.07;;;4.93;;
14394;SDS011;7282;49.204;10.652;2022-09-17T07:08:24;5.33;;;4.17;;
14394;SDS011;7282;49.204;10.652;2022-09-17T07:10:54;6.23;;;4.00;;
14394;SDS011;7282;49.204;10.652;2022-09-17T07:13:19;5.30;;;4.13;;
14394;SDS011;7282;49.204;10.652;2022-09-17T07:15:53;5.30;;;3.90;;
14394;SDS011;7282;49.204;10.652;2022-09-17T07:18:20;5.77;;;3.63;;
14394;SDS011;7282;49.204;10.652;2022-09-17T07:20:54;6.40;;;4.20;;
14394;SDS011;7282;49.204;10.652;2022-09-17T07:23:24;4.93;;;4.03;;
14394;SDS011;7282;49.204;10.652;2022-09-17T07:25:52;5.13;;;4.50;;
14394;SDS011;7282;49.204;10.652;2022-09-17T07:28:19;6.87;;;4.83;;
14394;SDS011;7282;49.204;10.652;2022-09-17T07:30:46;6.60;;;5.77;;
14394;SDS011;7282;49.204;10.652;2022-09-17T07:33:13;7.73;;;4.43;;
14394;SDS011;7282;49.204;10.652;2022-09-17T07:35:40;5.50;;;5.00;;
14394;SDS011;7282;49.204;10.652;2022-09-17T07:38:06;5.13;;;4.60;;
14394;SDS011;7282;49.204;10.652;2022-09-17T07:40:33;6.60;;;4.53;;
14394;SDS011;7282;49.204;10.652;2022-09-17T07:43:00;5.37;;;4.43;;
14394;SDS011;7282;49.204;10.652;2022-09-17T07:45:26;6.23;;;4.90;;
14394;SDS011;7282;49.204;10.652;2022-09-17T07:47:53;6.20;;;5.37;;
14394;SDS011;7282;49.204;10.652;2022-09-17T07:50:20;5.13;;;4.63;;
14394;SDS011;7282;49.204;10.652;2022-09-17T07:52:46;5.60;;;5.10;;
14394;SDS011;7282;49.204;10.652;2022-09-17T07:55:13;7.03;;;4.90;;
14394;SDS011;7282;49.204;10.652;2022-09-17T07:57:42;5.67;;;4.97;;
14394;SDS011;7282;49.204;10.652;2022-09-17T08:00:09;7.60;;;5.03;;
14394;SDS011;7282;49.204;10.652;2022-09-17T08:02:36;5.77;;;5.20;;
14394;SDS011;7282;49.204;10.652;2022-09-17T08:05:03;5.27;;;4.77;;
14394;SDS011;7282;49.204;10.652;2022-09-17T08:07:29;6.50;;;5.40;;
14394;SDS011;7282;49.204;10.652;2022-09-17T08:09:56;5.97;;;5.33;;
14394;SDS011;7282;49.204;10.652;2022-09-17T08:12:23;7.40;;;5.27;;
14394;SDS011;7282;49.204;10.652;2022-09-17T08:14:50;5.70;;;4.93;;
14394;SDS011;7282;49.204;10.652;2022-09-17T08:17:16;7.40;;;4.90;;
14394;SDS011;7282;49.204;10.652;2022-09-17T08:19:43;7.60;;;5.27;;
14394;SDS011;7282;49.204;10.652;2022-09-17T08:22:10;6.13;;;5.53;;
14394;SDS011;7282;49.204;10.652;2022-09-17T08:24:36;6.00;;;5.13;;
14394;SDS011;7282;49.204;10.652;2022-09-17T08:27:03;5.97;;;5.37;;
14394;SDS011;7282;49.204;10.652;2022-09-17T08:29:30;7.77;;;5.93;;
14394;SDS011;7282;49.204;10.652;2022-09-17T08:31:57;6.77;;;5.53;;
14394;SDS011;7282;49.204;10.652;2022-09-17T08:34:23;5.93;;;4.70;;
14394;SDS011;7282;49.204;10.652;2022-09-17T08:36:50;7.47;;;4.73;;
14394;SDS011;7282;49.204;10.652;2022-09-17T08:39:17;8.30;;;5.30;;
14394;SDS011;7282;49.204;10.652;2022-09-17T08:41:48;5.97;;;4.93;;
14394;SDS011;7282;49.204;10.652;2022-09-17T08:44:23;6.10;;;5.33;;
14394;SDS011;7282;49.204;10.652;2022-09-17T08:49:22;6.67;;;5.30;;
14394;SDS011;7282;49.204;10.652;2022-09-17T08:51:52;10.87;;;5.70;;
14394;SDS011;7282;49.204;10.652;2022-09-17T08:54:20;11.43;;;6.00;;
14394;SDS011;7282;49.204;10.652;2022-09-17T08:56:46;8.50;;;6.23;;
14394;SDS011;7282;49.204;10.652;2022-09-17T08:59:21;7.63;;;5.30;;
14394;SDS011;7282;49.204;10.652;2022-09-17T09:01:57;9.60;;;5.53;;
14394;SDS011;7282;49.204;10.652;2022-09-17T09:04:35;9.70;;;5.57;;
14394;SDS011;7282;49.204;10.652;2022-09-17T09:07:05;5.87;;;4.93;;
14394;SDS011;7282;49.204;10.652;2022-09-17T09:09:38;9.43;;;5.30;;
14394;SDS011;7282;49.204;10.652;2022-09-17T09:12:08;9.73;;;5.80;;
14394;SDS011;7282;49.204;10.652;2022-09-17T09:14:34;8.77;;;5.00;;
14394;SDS011;7282;49.204;10.652;2022-09-17T09:17:04;11.17;;;6.10;;
14394;SDS011;7282;49.204;10.652;2022-09-17T09:19:33;10.27;;;5.87;;
14394;SDS011;7282;49.204;10.652;2022-09-17T09:22:04;7.50;;;4.97;;
14394;SDS011;7282;49.204;10.652;2022-09-17T09:24:37;7.97;;;5.10;;
14394;SDS011;7282;49.204;10.652;2022-09-17T09:27:15;13.27;;;5.43;;
14394;SDS011;7282;49.204;10.652;2022-09-17T09:32:28;7.00;;;4.10;;
14394;SDS011;7282;49.204;10.652;2022-09-17T09:34:52;6.70;;;3.80;;
14394;SDS011;7282;49.204;10.652;2022-09-17T09:37:24;7.03;;;4.33;;
14394;SDS011;7282;49.204;10.652;2022-09-17T09:39:51;7.43;;;4.10;;
14394;SDS011;7282;49.204;10.652;2022-09-17T09:42:29;6.00;;;4.07;;
14394;SDS011;7282;49.204;10.652;2022-09-17T09:45:02;7.20;;;3.57;;
14394;SDS011;7282;49.204;10.652;2022-09-17T09:50:23;5.67;;;3.70;;
14394;SDS011;7282;49.204;10.652;2022-09-17T09:52:56;5.67;;;3.77;;
14394;SDS011;7282;49.204;10.652;2022-09-17T09:55:28;7.60;;;3.97;;
14394;SDS011;7282;49.204;10.652;2022-09-17T09:57:52;10.17;;;4.30;;
14394;SDS011;7282;49.204;10.652;2022-09-17T10:00:31;8.10;;;3.73;;
14394;SDS011;7282;49.204;10.652;2022-09-17T10:03:14;7.97;;;4.13;;
14394;SDS011;7282;49.204;10.652;2022-09-17T10:05:50;8.53;;;4.17;;
14394;SDS011;7282;49.204;10.652;2022-09-17T10:08:12;6.73;;;4.60;;
14394;SDS011;7282;49.204;10.652;2022-09-17T10:13:25;7.57;;;4.10;;
14394;SDS011;7282;49.204;10.652;2022-09-17T10:15:52;12.53;;;5.20;;
14394;SDS011;7282;49.204;10.652;2022-09-17T10:18:20;8.90;;;4.40;;
14394;SDS011;7282;49.204;10.652;2022-09-17T10:20:51;7.77;;;4.87;;
14394;SDS011;7282;49.204;10.652;2022-09-17T10:23:16;6.67;;;4.30;;
14394;SDS011;7282;49.204;10.652;2022-09-17T10:25:43;13.97;;;5.13;;
14394;SDS011;7282;49.204;10.652;2022-09-17T10:30:58;8.33;;;5.57;;
14394;SDS011;7282;49.204;10.652;2022-09-17T10:33:29;8.40;;;5.00;;
14394;SDS011;7282;49.204;10.652;2022-09-17T10:35:59;6.83;;;4.23;;
14394;SDS011;7282;49.204;10.652;2022-09-17T10:38:34;6.40;;;4.10;;
14394;SDS011;7282;49.204;10.652;2022-09-17T10:41:10;5.23;;;4.40;;
14394;SDS011;7282;49.204;10.652;2022-09-17T10:43:33;6.00;;;4.23;;
14394;SDS011;7282;49.204;10.652;2022-09-17T10:45:59;8.50;;;4.10;;
14394;SDS011;7282;49.204;10.652;2022-09-17T10:48:27;5.07;;;3.90;;
14394;SDS011;7282;49.204;10.652;2022-09-17T10:50:55;6.27;;;3.87;;
14394;SDS011;7282;49.204;10.652;2022-09-17T10:53:23;6.47;;;3.53;;
14394;SDS011;7282;49.204;10.652;2022-09-17T10:56:12;6.43;;;4.50;;
14394;SDS011;7282;49.204;10.652;2022-09-17T10:58:50;7.50;;;4.80;;
14394;SDS011;7282;49.204;10.652;2022-09-17T11:01:38;8.73;;;4.37;;
14394;SDS011;7282;49.204;10.652;2022-09-17T11:04:21;9.37;;;4.87;;
14394;SDS011;7282;49.204;10.652;2022-09-17T11:10:36;10.10;;;4.20;;
14394;SDS011;7282;49.204;10.652;2022-09-17T11:12:29;8.87;;;4.00;;
14394;SDS011;7282;49.204;10.652;2022-09-17T11:20:03;6.23;;;3.97;;
14394;SDS011;7282;49.204;10.652;2022-09-17T11:28:11;7.47;;;3.80;;
14394;SDS011;7282;49.204;10.652;2022-09-17T11:30:58;6.07;;;4.00;;
14394;SDS011;7282;49.204;10.652;2022-09-17T11:35:56;3.30;;;2.70;;
14394;SDS011;7282;49.204;10.652;2022-09-17T11:38:29;4.13;;;2.73;;
14394;SDS011;7282;49.204;10.652;2022-09-17T11:41:00;4.13;;;2.67;;
14394;SDS011;7282;49.204;10.652;2022-09-17T11:43:28;3.67;;;2.60;;
14394;SDS011;7282;49.204;10.652;2022-09-17T11:48:45;5.00;;;2.67;;
14394;SDS011;7282;49.204;10.652;2022-09-17T11:53:42;5.77;;;3.70;;
14394;SDS011;7282;49.204;10.652;2022-09-17T11:56:16;6.70;;;3.40;;
14394;SDS011;7282;49.204;10.652;2022-09-17T11:58:45;5.33;;;2.90;;
14394;SDS011;7282;49.204;10.652;2022-09-17T12:03:50;4.67;;;3.10;;
14394;SDS011;7282;49.204;10.652;2022-09-17T12:06:19;8.27;;;4.40;;
14394;SDS011;7282;49.204;10.652;2022-09-17T12:08:54;4.63;;;3.43;;
14394;SDS011;7282;49.204;10.652;2022-09-17T12:14:17;6.90;;;4.20;;
14394;SDS011;7282;49.204;10.652;2022-09-17T12:16:44;7.00;;;3.60;;
14394;SDS011;7282;49.204;10.652;2022-09-17T12:19:14;5.77;;;3.80;;
14394;SDS011;7282;49.204;10.652;2022-09-17T12:21:44;8.57;;;3.90;;
14394;SDS011;7282;49.204;10.652;2022-09-17T12:26:47;5.97;;;3.70;;
14394;SDS011;7282;49.204;10.652;2022-09-17T12:29:18;3.13;;;2.73;;
14394;SDS011;7282;49.204;10.652;2022-09-17T12:31:49;5.17;;;3.07;;
14394;SDS011;7282;49.204;10.652;2022-09-17T12:37:27;2.90;;;2.53;;
14394;SDS011;7282;49.204;10.652;2022-09-17T12:39:14;3.60;;;2.50;;
14394;SDS011;7282;49.204;10.652;2022-09-17T12:52:19;4.43;;;2.90;;
14394;SDS011;7282;49.204;10.652;2022-09-17T12:55:05;6.10;;;3.30;;
14394;SDS011;7282;49.204;10.652;2022-09-17T13:00:14;7.47;;;3.73;;
14394;SDS011;7282;49.204;10.652;2022-09-17T13:02:50;6.87;;;3.00;;
14394;SDS011;7282;49.204;10.652;2022-09-17T13:10:27;3.93;;;2.80;;
14394;SDS011;7282;49.204;10.652;2022-09-17T13:12:54;4.47;;;2.97;;
14394;SDS011;7282;49.204;10.652;2022-09-17T13:15:29;6.00;;;3.00;;
14394;SDS011;7282;49.204;10.652;2022-09-17T13:20:36;5.90;;;2.93;;
14394;SDS011;7282;49.204;10.652;2022-09-17T13:23:02;6.77;;;2.73;;
14394;SDS011;7282;49.204;10.652;2022-09-17T13:25:29;5.33;;;3.47;;
14394;SDS011;7282;49.204;10.652;2022-09-17T13:28:10;10.00;;;3.57;;
14394;SDS011;7282;49.204;10.652;2022-09-17T13:33:54;5.47;;;2.73;;
14394;SDS011;7282;49.204;10.652;2022-09-17T13:35:53;4.87;;;2.27;;
14394;SDS011;7282;49.204;10.652;2022-09-17T13:38:20;3.77;;;2.07;;
14394;SDS011;7282;49.204;10.652;2022-09-17T13:40:48;3.60;;;2.10;;
14394;SDS011;7282;49.204;10.652;2022-09-17T13:43:16;3.07;;;2.17;;
14394;SDS011;7282;49.204;10.652;2022-09-17T13:48:30;4.03;;;2.33;;
14394;SDS011;7282;49.204;10.652;2022-09-17T13:51:12;4.20;;;2.93;;
14394;SDS011;7282;49.204;10.652;2022-09-17T13:53:26;4.97;;;3.00;;
14394;SDS011;7282;49.204;10.652;2022-09-17T13:55:54;4.53;;;2.70;;
14394;SDS011;7282;49.204;10.652;2022-09-17T13:58:23;6.47;;;3.13;;
14394;SDS011;7282;49.204;10.652;2022-09-17T14:00:53;5.73;;;3.10;;
14394;SDS011;7282;49.204;10.652;2022-09-17T14:16:34;2.33;;;1.57;;
14394;SDS011;7282;49.204;10.652;2022-09-17T14:22:29;2.53;;;1.20;;
14394;SDS011;7282;49.204;10.652;2022-09-17T14:24:19;2.80;;;1.50;;
14394;SDS011;7282;49.204;10.652;2022-09-17T14:29:21;3.00;;;1.70;;
14394;SDS011;7282;49.204;10.652;2022-09-17T14:31:46;4.57;;;1.73;;
14394;SDS011;7282;49.204;10.652;2022-09-17T14:34:21;2.87;;;1.60;;
14394;SDS011;7282;49.204;10.652;2022-09-17T14:36:45;1.90;;;1.40;;
14394;SDS011;7282;49.204;10.652;2022-09-17T14:39:35;3.30;;;1.63;;
14394;SDS011;7282;49.204;10.652;2022-09-17T14:41:41;4.83;;;1.60;;
14394;SDS011;7282;49.204;10.652;2022-09-17T14:44:12;3.50;;;1.70;;
14394;SDS011;7282;49.204;10.652;2022-09-17T14:46:41;4.60;;;1.77;;
14394;SDS011;7282;49.204;10.652;2022-09-17T14:49:19;2.03;;;1.43;;
14394;SDS011;7282;49.204;10.652;2022-09-17T14:51:48;2.20;;;1.37;;
14394;SDS011;7282;49.204;10.652;2022-09-17T14:56:51;3.63;;;1.80;;
14394;SDS011;7282;49.204;10.652;2022-09-17T14:59:22;1.60;;;1.50;;
14394;SDS011;7282;49.204;10.652;2022-09-17T15:01:47;3.97;;;1.97;;
14394;SDS011;7282;49.204;10.652;2022-09-17T15:06:42;4.30;;;1.90;;
14394;SDS011;7282;49.204;10.652;2022-09-17T15:09:22;2.10;;;1.37;;
14394;SDS011;7282;49.204;10.652;2022-09-17T15:11:44;5.30;;;1.60;;
14394;SDS011;7282;49.204;10.652;2022-09-17T15:14:15;2.37;;;1.43;;
14394;SDS011;7282;49.204;10.652;2022-09-17T15:17:03;3.20;;;1.60;;
14394;SDS011;7282;49.204;10.652;2022-09-17T15:19:10;2.10;;;1.50;;
14394;SDS011;7282;49.204;10.652;2022-09-17T15:21:40;3.70;;;1.70;;
14394;SDS011;7282;49.204;10.652;2022-09-17T15:26:42;4.87;;;1.30;;
14394;SDS011;7282;49.204;10.652;2022-09-17T15:29:11;4.73;;;1.67;;
14394;SDS011;7282;49.204;10.652;2022-09-17T15:31:38;2.00;;;1.40;;
14394;SDS011;7282;49.204;10.652;2022-09-17T15:34:08;2.43;;;1.50;;
14394;SDS011;7282;49.204;10.652;2022-09-17T15:36:34;2.53;;;1.60;;
14394;SDS011;7282;49.204;10.652;2022-09-17T15:39:04;2.07;;;1.30;;
14394;SDS011;7282;49.204;10.652;2022-09-17T15:44:24;4.10;;;1.67;;
14394;SDS011;7282;49.204;10.652;2022-09-17T15:46:51;3.07;;;1.50;;
14394;SDS011;7282;49.204;10.652;2022-09-17T15:49:25;3.10;;;1.63;;
14394;SDS011;7282;49.204;10.652;2022-09-17T15:51:51;2.77;;;1.33;;
14394;SDS011;7282;49.204;10.652;2022-09-17T15:54:28;2.90;;;1.40;;
14394;SDS011;7282;49.204;10.652;2022-09-17T15:56:56;6.37;;;1.90;;
14394;SDS011;7282;49.204;10.652;2022-09-17T15:59:27;4.50;;;1.63;;
14394;SDS011;7282;49.204;10.652;2022-09-17T16:01:55;2.50;;;1.33;;
14394;SDS011;7282;49.204;10.652;2022-09-17T16:04:27;3.57;;;1.50;;
14394;SDS011;7282;49.204;10.652;2022-09-17T16:06:55;5.87;;;1.93;;
14394;SDS011;7282;49.204;10.652;2022-09-17T16:09:35;5.90;;;1.63;;
14394;SDS011;7282;49.204;10.652;2022-09-17T16:12:03;3.17;;;1.63;;
14394;SDS011;7282;49.204;10.652;2022-09-17T16:14:29;4.47;;;1.70;;
14394;SDS011;7282;49.204;10.652;2022-09-17T16:16:56;7.03;;;1.90;;
14394;SDS011;7282;49.204;10.652;2022-09-17T16:19:24;5.10;;;1.93;;
14394;SDS011;7282;49.204;10.652;2022-09-17T16:21:51;3.67;;;1.70;;
14394;SDS011;7282;49.204;10.652;2022-09-17T16:24:18;4.07;;;1.70;;
14394;SDS011;7282;49.204;10.652;2022-09-17T16:26:45;3.50;;;2.07;;
14394;SDS011;7282;49.204;10.652;2022-09-17T16:29:13;3.00;;;1.50;;
14394;SDS011;7282;49.204;10.652;2022-09-17T16:31:40;2.80;;;1.50;;
14394;SDS011;7282;49.204;10.652;2022-09-17T16:34:07;2.80;;;1.87;;
14394;SDS011;7282;49.204;10.652;2022-09-17T16:36:33;3.73;;;2.20;;
14394;SDS011;7282;49.204;10.652;2022-09-17T16:39:00;5.07;;;1.67;;
14394;SDS011;7282;49.204;10.652;2022-09-17T16:41:27;4.47;;;2.10;;
14394;SDS011;7282;49.204;10.652;2022-09-17T16:43:53;3.40;;;1.90;;
14394;SDS011;7282;49.204;10.652;2022-09-17T16:46:20;4.10;;;1.70;;
14394;SDS011;7282;49.204;10.652;2022-09-17T16:48:50;4.03;;;2.20;;
14394;SDS011;7282;49.204;10.652;2022-09-17T16:51:17;2.80;;;1.97;;
14394;SDS011;7282;49.204;10.652;2022-09-17T16:53:44;3.50;;;1.90;;
14394;SDS011;7282;49.204;10.652;2022-09-17T16:56:11;3.63;;;2.00;;
14394;SDS011;7282;49.204;10.652;2022-09-17T16:58:38;4.27;;;2.37;;
14394;SDS011;7282;49.204;10.652;2022-09-17T17:01:14;2.87;;;2.10;;
14394;SDS011;7282;49.204;10.652;2022-09-17T17:03:41;2.23;;;1.70;;
14394;SDS011;7282;49.204;10.652;2022-09-17T17:06:16;2.80;;;1.63;;